sensor_id;sensor_type;location;lat;lon;timestamp;temperature;humidity
46976;DHT22;32724;51.094;6.996;2023-03-02T00:01:35;-1.00;99.90
46976;DHT22;32724;51.094;6.996;2023-03-02T00:04:01;-1.00;99.90
46976;DHT22;32724;51.094;6.996;2023-03-02T00:06:27;-1.10;99.90
46976;DHT22;32724;51.094;6.996;2023-03-02T00:08:53;-1.10;99.90
46976;DHT22;32724;51.094;6.996;2023-03-02T00:11:18;-1.10;99.90
46976;DHT22;32724;51.094;6.996;2023-03-02T00:13:44;-1.10;99.90
46976;DHT22;32724;51.094;6.996;2023-03-02T00:16:09;-1.00;99.90
46976;DHT22;32724;51.094;6.996;2023-03-02T00:18:35;-0.90;99.90
46976;DHT22;32724;51.094;6.996;2023-03-02T00:21:01;-0.70;99.90
46976;DHT22;32724;51.094;6.996;2023-03-02T00:23:26;-0.60;99.90
46976;DHT22;32724;51.094;6.996;2023-03-02T00:26:10;-0.50;99.90
46976;DHT22;32724;51.094;6.996;2023-03-02T00:28:35;-0.40;99.90
46976;DHT22;32724;51.094;6.996;2023-03-02T00:31:04;-0.40;99.90
46976;DHT22;32724;51.094;6.996;2023-03-02T00:33:30;-0.40;99.90
46976;DHT22;32724;51.094;6.996;2023-03-02T00:35:56;-0.40;99.90
46976;DHT22;32724;51.094;6.996;2023-03-02T00:38:21;-0.40;99.90
46976;DHT22;32724;51.094;6.996;2023-03-02T00:40:47;-0.40;99.90
46976;DHT22;32724;51.094;6.996;2023-03-02T00:43:15;-0.40;99.90
46976;DHT22;32724;51.094;6.996;2023-03-02T00:45:41;-0.40;99.90
46976;DHT22;32724;51.094;6.996;2023-03-02T00:48:07;-0.50;99.90
46976;DHT22;32724;51.094;6.996;2023-03-02T00:50:33;-0.60;99.90
46976;DHT22;32724;51.094;6.996;2023-03-02T00:53:18;-0.60;99.90
46976;DHT22;32724;51.094;6.996;2023-03-02T00:55:51;-0.70;99.90
46976;DHT22;32724;51.094;6.996;2023-03-02T00:58:17;-0.90;99.90
46976;DHT22;32724;51.094;6.996;2023-03-02T01:00:42;-1.00;99.90
46976;DHT22;32724;51.094;6.996;2023-03-02T01:03:07;-0.90;99.90
46976;DHT22;32724;51.094;6.996;2023-03-02T01:05:34;-1.20;99.90
46976;DHT22;32724;51.094;6.996;2023-03-02T01:08:00;-1.30;99.90
46976;DHT22;32724;51.094;6.996;2023-03-02T01:10:26;-1.30;99.90
46976;DHT22;32724;51.094;6.996;2023-03-02T01:12:51;-1.40;99.90
46976;DHT22;32724;51.094;6.996;2023-03-02T01:15:16;-1.50;99.90
46976;DHT22;32724;51.094;6.996;2023-03-02T01:17:42;-1.60;99.90
46976;DHT22;32724;51.094;6.996;2023-03-02T01:20:08;-1.60;99.90
46976;DHT22;32724;51.094;6.996;2023-03-02T01:22:34;-1.70;99.90
46976;DHT22;32724;51.094;6.996;2023-03-02T01:24:59;-1.70;99.90
46976;DHT22;32724;51.094;6.996;2023-03-02T01:27:25;-1.80;99.90
46976;DHT22;32724;51.094;6.996;2023-03-02T01:29:50;-1.80;99.90
46976;DHT22;32724;51.094;6.996;2023-03-02T01:32:16;-1.90;99.90
46976;DHT22;32724;51.094;6.996;2023-03-02T01:34:41;-1.90;99.90
46976;DHT22;32724;51.094;6.996;2023-03-02T01:37:07;-2.00;99.90
46976;DHT22;32724;51.094;6.996;2023-03-02T01:39:32;-2.10;99.90
46976;DHT22;32724;51.094;6.996;2023-03-02T01:41:58;-2.10;99.90
46976;DHT22;32724;51.094;6.996;2023-03-02T01:44:34;-2.20;99.90
46976;DHT22;32724;51.094;6.996;2023-03-02T01:47:00;-2.20;99.90
46976;DHT22;32724;51.094;6.996;2023-03-02T01:49:26;-2.20;99.90
46976;DHT22;32724;51.094;6.996;2023-03-02T01:51:52;-2.20;99.90
46976;DHT22;32724;51.094;6.996;2023-03-02T01:54:18;-2.30;99.90
46976;DHT22;32724;51.094;6.996;2023-03-02T01:56:48;-2.20;99.90
46976;DHT22;32724;51.094;6.996;2023-03-02T01:59:15;-2.20;99.90
46976;DHT22;32724;51.094;6.996;2023-03-02T02:01:44;-2.30;99.90
46976;DHT22;32724;51.094;6.996;2023-03-02T02:04:11;-2.30;99.90
46976;DHT22;32724;51.094;6.996;2023-03-02T02:06:37;-2.40;99.90
46976;DHT22;32724;51.094;6.996;2023-03-02T02:09:04;-2.50;99.90
46976;DHT22;32724;51.094;6.996;2023-03-02T02:11:32;-2.40;99.90
46976;DHT22;32724;51.094;6.996;2023-03-02T02:13:58;-2.50;99.90
46976;DHT22;32724;51.094;6.996;2023-03-02T02:16:25;-2.50;99.90
46976;DHT22;32724;51.094;6.996;2023-03-02T02:18:51;-2.50;99.90
46976;DHT22;32724;51.094;6.996;2023-03-02T02:21:16;-2.50;99.90
46976;DHT22;32724;51.094;6.996;2023-03-02T02:23:49;-2.50;99.90
46976;DHT22;32724;51.094;6.996;2023-03-02T02:26:22;-2.60;99.90
46976;DHT22;32724;51.094;6.996;2023-03-02T02:28:57;-2.70;99.90
46976;DHT22;32724;51.094;6.996;2023-03-02T02:31:46;-2.60;99.90
46976;DHT22;32724;51.094;6.996;2023-03-02T02:34:12;-2.60;99.90
46976;DHT22;32724;51.094;6.996;2023-03-02T02:36:40;-2.60;99.90
46976;DHT22;32724;51.094;6.996;2023-03-02T02:39:06;-2.70;99.90
46976;DHT22;32724;51.094;6.996;2023-03-02T02:41:35;-2.60;99.90
46976;DHT22;32724;51.094;6.996;2023-03-02T02:44:01;-2.70;99.90
46976;DHT22;32724;51.094;6.996;2023-03-02T02:46:27;-2.70;99.90
46976;DHT22;32724;51.094;6.996;2023-03-02T02:48:52;-2.70;99.90
46976;DHT22;32724;51.094;6.996;2023-03-02T02:51:22;-2.80;99.90
46976;DHT22;32724;51.094;6.996;2023-03-02T02:53:56;-2.90;99.90
46976;DHT22;32724;51.094;6.996;2023-03-02T02:56:35;-2.90;99.90
46976;DHT22;32724;51.094;6.996;2023-03-02T02:59:05;-3.00;99.90
46976;DHT22;32724;51.094;6.996;2023-03-02T03:01:31;-3.00;99.90
46976;DHT22;32724;51.094;6.996;2023-03-02T03:04:00;-2.90;99.90
46976;DHT22;32724;51.094;6.996;2023-03-02T03:06:27;-3.00;99.90
46976;DHT22;32724;51.094;6.996;2023-03-02T03:08:55;-3.00;99.90
46976;DHT22;32724;51.094;6.996;2023-03-02T03:11:26;-3.00;99.90
46976;DHT22;32724;51.094;6.996;2023-03-02T03:16:28;-2.80;99.90
46976;DHT22;32724;51.094;6.996;2023-03-02T03:18:53;-2.70;99.90
46976;DHT22;32724;51.094;6.996;2023-03-02T03:21:20;-2.80;99.90
46976;DHT22;32724;51.094;6.996;2023-03-02T03:23:45;-2.70;99.90
46976;DHT22;32724;51.094;6.996;2023-03-02T03:26:11;-2.80;99.90
46976;DHT22;32724;51.094;6.996;2023-03-02T03:28:36;-2.80;99.90
46976;DHT22;32724;51.094;6.996;2023-03-02T03:31:02;-2.80;99.90
46976;DHT22;32724;51.094;6.996;2023-03-02T03:33:43;-2.80;99.90
46976;DHT22;32724;51.094;6.996;2023-03-02T03:36:09;-2.90;99.90
46976;DHT22;32724;51.094;6.996;2023-03-02T03:38:34;-2.80;99.90
46976;DHT22;32724;51.094;6.996;2023-03-02T03:41:00;-2.80;99.90
46976;DHT22;32724;51.094;6.996;2023-03-02T03:43:25;-2.80;99.90
46976;DHT22;32724;51.094;6.996;2023-03-02T03:45:51;-2.90;99.90
46976;DHT22;32724;51.094;6.996;2023-03-02T03:48:16;-2.90;99.90
46976;DHT22;32724;51.094;6.996;2023-03-02T03:50:42;-2.90;99.90
46976;DHT22;32724;51.094;6.996;2023-03-02T03:53:08;-2.80;99.90
46976;DHT22;32724;51.094;6.996;2023-03-02T03:55:33;-2.80;99.90
46976;DHT22;32724;51.094;6.996;2023-03-02T03:57:59;-2.70;99.90
46976;DHT22;32724;51.094;6.996;2023-03-02T04:00:24;-2.70;99.90
46976;DHT22;32724;51.094;6.996;2023-03-02T04:02:50;-2.80;99.90
46976;DHT22;32724;51.094;6.996;2023-03-02T04:05:15;-2.80;99.90
46976;DHT22;32724;51.094;6.996;2023-03-02T04:07:41;-2.40;99.90
46976;DHT22;32724;51.094;6.996;2023-03-02T04:10:07;-2.60;99.90
46976;DHT22;32724;51.094;6.996;2023-03-02T04:12:33;-2.70;99.90
46976;DHT22;32724;51.094;6.996;2023-03-02T04:14:59;-2.80;99.90
46976;DHT22;32724;51.094;6.996;2023-03-02T04:17:25;-2.90;99.90
46976;DHT22;32724;51.094;6.996;2023-03-02T04:19:50;-3.00;99.90
46976;DHT22;32724;51.094;6.996;2023-03-02T04:22:16;-3.00;99.90
46976;DHT22;32724;51.094;6.996;2023-03-02T04:24:42;-3.10;99.90
46976;DHT22;32724;51.094;6.996;2023-03-02T04:27:07;-3.10;99.90
46976;DHT22;32724;51.094;6.996;2023-03-02T04:29:33;-3.10;99.90
46976;DHT22;32724;51.094;6.996;2023-03-02T04:31:59;-3.00;99.90
46976;DHT22;32724;51.094;6.996;2023-03-02T04:34:24;-3.00;99.90
46976;DHT22;32724;51.094;6.996;2023-03-02T04:36:50;-3.00;99.90
46976;DHT22;32724;51.094;6.996;2023-03-02T04:39:16;-3.10;99.90
46976;DHT22;32724;51.094;6.996;2023-03-02T04:41:42;-3.10;99.90
46976;DHT22;32724;51.094;6.996;2023-03-02T04:44:07;-3.00;99.90
46976;DHT22;32724;51.094;6.996;2023-03-02T04:46:33;-2.90;99.90
46976;DHT22;32724;51.094;6.996;2023-03-02T04:48:59;-2.80;99.90
46976;DHT22;32724;51.094;6.996;2023-03-02T04:51:28;-2.90;99.90
46976;DHT22;32724;51.094;6.996;2023-03-02T04:53:55;-2.90;99.90
46976;DHT22;32724;51.094;6.996;2023-03-02T04:56:21;-3.10;99.90
46976;DHT22;32724;51.094;6.996;2023-03-02T04:58:46;-2.90;99.90
46976;DHT22;32724;51.094;6.996;2023-03-02T05:01:13;-2.70;99.90
46976;DHT22;32724;51.094;6.996;2023-03-02T05:03:38;-2.50;99.90
46976;DHT22;32724;51.094;6.996;2023-03-02T05:06:04;-2.40;99.90
46976;DHT22;32724;51.094;6.996;2023-03-02T05:08:30;-2.40;99.90
46976;DHT22;32724;51.094;6.996;2023-03-02T05:10:56;-2.50;99.90
46976;DHT22;32724;51.094;6.996;2023-03-02T05:13:23;-2.70;99.90
46976;DHT22;32724;51.094;6.996;2023-03-02T05:15:48;-2.80;99.90
46976;DHT22;32724;51.094;6.996;2023-03-02T05:18:15;-2.90;99.90
46976;DHT22;32724;51.094;6.996;2023-03-02T05:20:41;-2.80;99.90
46976;DHT22;32724;51.094;6.996;2023-03-02T05:23:07;-2.70;99.90
46976;DHT22;32724;51.094;6.996;2023-03-02T05:25:34;-2.60;99.90
46976;DHT22;32724;51.094;6.996;2023-03-02T05:28:08;-2.60;99.90
46976;DHT22;32724;51.094;6.996;2023-03-02T05:30:33;-2.70;99.90
46976;DHT22;32724;51.094;6.996;2023-03-02T05:33:01;-2.90;99.90
46976;DHT22;32724;51.094;6.996;2023-03-02T05:35:27;-3.00;99.90
46976;DHT22;32724;51.094;6.996;2023-03-02T05:37:52;-3.00;99.90
46976;DHT22;32724;51.094;6.996;2023-03-02T05:40:27;-3.10;99.90
46976;DHT22;32724;51.094;6.996;2023-03-02T05:42:52;-3.10;99.90
46976;DHT22;32724;51.094;6.996;2023-03-02T05:45:20;-2.90;99.90
46976;DHT22;32724;51.094;6.996;2023-03-02T05:47:46;-2.80;99.90
46976;DHT22;32724;51.094;6.996;2023-03-02T05:50:12;-2.50;99.90
46976;DHT22;32724;51.094;6.996;2023-03-02T05:52:37;-2.40;99.90
46976;DHT22;32724;51.094;6.996;2023-03-02T05:55:03;-2.30;99.90
46976;DHT22;32724;51.094;6.996;2023-03-02T05:57:28;-2.20;99.90
46976;DHT22;32724;51.094;6.996;2023-03-02T05:59:54;-2.30;99.90
46976;DHT22;32724;51.094;6.996;2023-03-02T06:02:19;-2.40;99.90
46976;DHT22;32724;51.094;6.996;2023-03-02T06:04:45;-2.50;99.90
46976;DHT22;32724;51.094;6.996;2023-03-02T06:07:10;-2.60;99.90
46976;DHT22;32724;51.094;6.996;2023-03-02T06:09:39;-2.80;99.90
46976;DHT22;32724;51.094;6.996;2023-03-02T06:12:05;-2.90;99.90
46976;DHT22;32724;51.094;6.996;2023-03-02T06:14:31;-3.00;99.90
46976;DHT22;32724;51.094;6.996;2023-03-02T06:16:56;-3.00;99.90
46976;DHT22;32724;51.094;6.996;2023-03-02T06:19:22;-3.10;99.90
46976;DHT22;32724;51.094;6.996;2023-03-02T06:21:47;-3.00;99.90
46976;DHT22;32724;51.094;6.996;2023-03-02T06:24:13;-2.90;99.90
46976;DHT22;32724;51.094;6.996;2023-03-02T06:26:38;-2.80;99.90
46976;DHT22;32724;51.094;6.996;2023-03-02T06:29:03;-2.70;99.90
46976;DHT22;32724;51.094;6.996;2023-03-02T06:31:30;-2.70;99.90
46976;DHT22;32724;51.094;6.996;2023-03-02T06:33:58;-2.70;99.90
46976;DHT22;32724;51.094;6.996;2023-03-02T06:36:23;-2.70;99.90
46976;DHT22;32724;51.094;6.996;2023-03-02T06:38:49;-2.70;99.90
46976;DHT22;32724;51.094;6.996;2023-03-02T06:41:15;-2.80;99.90
46976;DHT22;32724;51.094;6.996;2023-03-02T06:43:40;-2.70;99.90
46976;DHT22;32724;51.094;6.996;2023-03-02T06:46:06;-2.70;99.90
46976;DHT22;32724;51.094;6.996;2023-03-02T06:48:31;-2.70;99.90
46976;DHT22;32724;51.094;6.996;2023-03-02T06:50:57;-2.70;99.90
46976;DHT22;32724;51.094;6.996;2023-03-02T06:53:22;-2.70;99.90
46976;DHT22;32724;51.094;6.996;2023-03-02T06:55:48;-2.60;99.90
46976;DHT22;32724;51.094;6.996;2023-03-02T06:58:14;-2.60;99.90
46976;DHT22;32724;51.094;6.996;2023-03-02T07:00:39;-2.50;99.90
46976;DHT22;32724;51.094;6.996;2023-03-02T07:03:05;-2.50;99.90
46976;DHT22;32724;51.094;6.996;2023-03-02T07:05:30;-2.40;99.90
46976;DHT22;32724;51.094;6.996;2023-03-02T07:08:00;-2.30;99.90
46976;DHT22;32724;51.094;6.996;2023-03-02T07:10:26;-1.60;99.90
46976;DHT22;32724;51.094;6.996;2023-03-02T07:12:51;-1.80;99.90
46976;DHT22;32724;51.094;6.996;2023-03-02T07:15:17;-1.80;99.90
46976;DHT22;32724;51.094;6.996;2023-03-02T07:17:43;-1.70;99.90
46976;DHT22;32724;51.094;6.996;2023-03-02T07:20:10;-1.60;99.90
46976;DHT22;32724;51.094;6.996;2023-03-02T07:22:36;-1.40;99.90
46976;DHT22;32724;51.094;6.996;2023-03-02T07:25:02;-1.20;99.90
46976;DHT22;32724;51.094;6.996;2023-03-02T07:27:27;-1.00;99.90
46976;DHT22;32724;51.094;6.996;2023-03-02T07:29:53;-0.90;99.90
46976;DHT22;32724;51.094;6.996;2023-03-02T07:32:18;-0.80;99.90
46976;DHT22;32724;51.094;6.996;2023-03-02T07:34:44;-0.60;99.90
46976;DHT22;32724;51.094;6.996;2023-03-02T07:37:30;-0.40;99.90
46976;DHT22;32724;51.094;6.996;2023-03-02T07:39:55;-0.20;99.90
46976;DHT22;32724;51.094;6.996;2023-03-02T07:42:21;0.00;99.90
46976;DHT22;32724;51.094;6.996;2023-03-02T07:44:46;0.20;99.90
46976;DHT22;32724;51.094;6.996;2023-03-02T07:47:12;0.40;99.90
46976;DHT22;32724;51.094;6.996;2023-03-02T07:49:52;0.70;99.90
46976;DHT22;32724;51.094;6.996;2023-03-02T07:52:17;1.00;99.90
46976;DHT22;32724;51.094;6.996;2023-03-02T07:54:43;1.20;99.90
46976;DHT22;32724;51.094;6.996;2023-03-02T07:57:08;1.30;99.90
46976;DHT22;32724;51.094;6.996;2023-03-02T07:59:34;1.40;99.90
46976;DHT22;32724;51.094;6.996;2023-03-02T08:01:59;1.60;99.90
46976;DHT22;32724;51.094;6.996;2023-03-02T08:04:25;1.80;99.90
46976;DHT22;32724;51.094;6.996;2023-03-02T08:06:50;1.80;99.90
46976;DHT22;32724;51.094;6.996;2023-03-02T08:09:16;2.00;99.90
46976;DHT22;32724;51.094;6.996;2023-03-02T08:11:42;1.80;99.90
46976;DHT22;32724;51.094;6.996;2023-03-02T08:14:09;2.10;99.90
46976;DHT22;32724;51.094;6.996;2023-03-02T08:16:34;2.30;99.90
46976;DHT22;32724;51.094;6.996;2023-03-02T08:19:00;2.50;99.90
46976;DHT22;32724;51.094;6.996;2023-03-02T08:21:26;2.70;99.90
46976;DHT22;32724;51.094;6.996;2023-03-02T08:23:51;2.80;99.90
46976;DHT22;32724;51.094;6.996;2023-03-02T08:26:17;2.90;99.90
46976;DHT22;32724;51.094;6.996;2023-03-02T08:28:43;3.00;99.90
46976;DHT22;32724;51.094;6.996;2023-03-02T08:31:09;3.10;99.90
46976;DHT22;32724;51.094;6.996;2023-03-02T08:33:35;3.30;99.90
46976;DHT22;32724;51.094;6.996;2023-03-02T08:36:05;3.40;99.90
46976;DHT22;32724;51.094;6.996;2023-03-02T08:38:31;3.50;99.90
46976;DHT22;32724;51.094;6.996;2023-03-02T08:40:57;3.40;99.90
46976;DHT22;32724;51.094;6.996;2023-03-02T08:43:24;3.20;99.90
46976;DHT22;32724;51.094;6.996;2023-03-02T08:45:50;3.30;99.90
46976;DHT22;32724;51.094;6.996;2023-03-02T08:48:16;3.50;99.90
46976;DHT22;32724;51.094;6.996;2023-03-02T08:50:42;3.60;99.90
46976;DHT22;32724;51.094;6.996;2023-03-02T08:53:07;3.60;99.90
46976;DHT22;32724;51.094;6.996;2023-03-02T08:55:36;3.80;99.90
46976;DHT22;32724;51.094;6.996;2023-03-02T08:58:02;4.00;99.90
46976;DHT22;32724;51.094;6.996;2023-03-02T09:00:28;3.90;99.90
46976;DHT22;32724;51.094;6.996;2023-03-02T09:02:53;3.90;99.90
46976;DHT22;32724;51.094;6.996;2023-03-02T09:05:19;4.10;99.90
46976;DHT22;32724;51.094;6.996;2023-03-02T09:07:45;4.20;99.90
46976;DHT22;32724;51.094;6.996;2023-03-02T09:10:10;4.30;99.90
46976;DHT22;32724;51.094;6.996;2023-03-02T09:12:36;4.40;99.90
46976;DHT22;32724;51.094;6.996;2023-03-02T09:15:01;4.60;99.90
46976;DHT22;32724;51.094;6.996;2023-03-02T09:17:27;4.80;99.90
46976;DHT22;32724;51.094;6.996;2023-03-02T09:19:52;5.00;99.90
46976;DHT22;32724;51.094;6.996;2023-03-02T09:22:18;5.10;99.90
46976;DHT22;32724;51.094;6.996;2023-03-02T09:24:43;5.20;99.90
46976;DHT22;32724;51.094;6.996;2023-03-02T09:27:09;5.30;99.90
46976;DHT22;32724;51.094;6.996;2023-03-02T09:29:34;5.50;99.90
46976;DHT22;32724;51.094;6.996;2023-03-02T09:32:00;5.60;99.90
46976;DHT22;32724;51.094;6.996;2023-03-02T09:34:25;5.80;99.90
46976;DHT22;32724;51.094;6.996;2023-03-02T09:36:51;6.00;99.90
46976;DHT22;32724;51.094;6.996;2023-03-02T09:39:16;6.10;99.90
46976;DHT22;32724;51.094;6.996;2023-03-02T09:44:37;6.20;99.90
46976;DHT22;32724;51.094;6.996;2023-03-02T09:49:59;6.40;99.90
46976;DHT22;32724;51.094;6.996;2023-03-02T09:52:34;6.20;99.90
46976;DHT22;32724;51.094;6.996;2023-03-02T09:55:05;6.10;99.90
46976;DHT22;32724;51.094;6.996;2023-03-02T09:57:36;6.30;99.90
46976;DHT22;32724;51.094;6.996;2023-03-02T10:00:05;6.50;99.90
46976;DHT22;32724;51.094;6.996;2023-03-02T10:02:36;6.60;99.90
46976;DHT22;32724;51.094;6.996;2023-03-02T10:05:05;6.80;99.90
46976;DHT22;32724;51.094;6.996;2023-03-02T10:07:34;7.00;99.90
46976;DHT22;32724;51.094;6.996;2023-03-02T10:15:16;7.30;99.90
46976;DHT22;32724;51.094;6.996;2023-03-02T10:20:45;7.50;99.90
46976;DHT22;32724;51.094;6.996;2023-03-02T10:25:47;7.90;99.90
46976;DHT22;32724;51.094;6.996;2023-03-02T10:28:19;7.90;99.90
46976;DHT22;32724;51.094;6.996;2023-03-02T10:30:45;8.00;99.90
46976;DHT22;32724;51.094;6.996;2023-03-02T10:33:16;8.10;99.90
46976;DHT22;32724;51.094;6.996;2023-03-02T10:35:44;8.10;99.90
46976;DHT22;32724;51.094;6.996;2023-03-02T10:38:15;8.20;99.90
46976;DHT22;32724;51.094;6.996;2023-03-02T10:40:42;8.30;99.90
46976;DHT22;32724;51.094;6.996;2023-03-02T10:43:56;8.40;99.90
46976;DHT22;32724;51.094;6.996;2023-03-02T10:45:59;8.50;99.40
46976;DHT22;32724;51.094;6.996;2023-03-02T10:48:25;8.70;99.20
46976;DHT22;32724;51.094;6.996;2023-03-02T10:50:54;8.80;98.20
46976;DHT22;32724;51.094;6.996;2023-03-02T10:53:20;8.90;97.30
46976;DHT22;32724;51.094;6.996;2023-03-02T10:55:46;8.90;97.60
46976;DHT22;32724;51.094;6.996;2023-03-02T11:00:53;9.40;98.40
46976;DHT22;32724;51.094;6.996;2023-03-02T11:03:20;9.50;96.20
46976;DHT22;32724;51.094;6.996;2023-03-02T11:05:46;9.30;96.10
46976;DHT22;32724;51.094;6.996;2023-03-02T11:08:22;9.30;95.40
46976;DHT22;32724;51.094;6.996;2023-03-02T11:11:01;9.20;96.50
46976;DHT22;32724;51.094;6.996;2023-03-02T11:16:00;9.10;95.50
46976;DHT22;32724;51.094;6.996;2023-03-02T11:21:14;9.40;94.70
46976;DHT22;32724;51.094;6.996;2023-03-02T11:26:11;9.70;93.60
46976;DHT22;32724;51.094;6.996;2023-03-02T11:31:13;10.10;93.50
46976;DHT22;32724;51.094;6.996;2023-03-02T11:33:50;10.40;93.60
46976;DHT22;32724;51.094;6.996;2023-03-02T11:36:19;10.50;92.50
46976;DHT22;32724;51.094;6.996;2023-03-02T11:38:49;10.60;92.60
46976;DHT22;32724;51.094;6.996;2023-03-02T11:41:30;10.60;92.40
46976;DHT22;32724;51.094;6.996;2023-03-02T11:43:57;10.70;92.30
46976;DHT22;32724;51.094;6.996;2023-03-02T11:46:25;10.70;91.20
46976;DHT22;32724;51.094;6.996;2023-03-02T11:48:53;10.70;90.90
46976;DHT22;32724;51.094;6.996;2023-03-02T11:54:02;10.70;90.70
46976;DHT22;32724;51.094;6.996;2023-03-02T11:56:28;10.70;90.50
46976;DHT22;32724;51.094;6.996;2023-03-02T11:58:59;10.80;90.60
46976;DHT22;32724;51.094;6.996;2023-03-02T12:01:26;10.70;90.10
46976;DHT22;32724;51.094;6.996;2023-03-02T12:03:52;10.60;90.60
46976;DHT22;32724;51.094;6.996;2023-03-02T12:08:50;10.60;90.30
46976;DHT22;32724;51.094;6.996;2023-03-02T12:13:42;10.30;90.80
46976;DHT22;32724;51.094;6.996;2023-03-02T12:18:46;10.30;90.70
46976;DHT22;32724;51.094;6.996;2023-03-02T12:32:08;10.50;89.90
46976;DHT22;32724;51.094;6.996;2023-03-02T12:36:49;10.40;89.30
46976;DHT22;32724;51.094;6.996;2023-03-02T12:44:50;10.40;89.70
46976;DHT22;32724;51.094;6.996;2023-03-02T12:47:20;10.40;89.40
46976;DHT22;32724;51.094;6.996;2023-03-02T12:49:54;10.40;89.40
46976;DHT22;32724;51.094;6.996;2023-03-02T12:57:36;10.50;89.60
46976;DHT22;32724;51.094;6.996;2023-03-02T13:00:02;10.60;87.70
46976;DHT22;32724;51.094;6.996;2023-03-02T13:02:32;10.60;88.00
46976;DHT22;32724;51.094;6.996;2023-03-02T13:04:59;10.60;87.70
46976;DHT22;32724;51.094;6.996;2023-03-02T13:07:26;10.60;86.40
46976;DHT22;32724;51.094;6.996;2023-03-02T13:09:53;10.60;86.00
46976;DHT22;32724;51.094;6.996;2023-03-02T13:12:19;10.70;87.30
46976;DHT22;32724;51.094;6.996;2023-03-02T13:14:48;10.70;86.40
46976;DHT22;32724;51.094;6.996;2023-03-02T13:17:25;10.70;84.60
46976;DHT22;32724;51.094;6.996;2023-03-02T13:19:51;10.60;85.50
46976;DHT22;32724;51.094;6.996;2023-03-02T13:22:17;10.60;86.10
46976;DHT22;32724;51.094;6.996;2023-03-02T13:24:45;10.60;86.40
46976;DHT22;32724;51.094;6.996;2023-03-02T13:27:28;10.70;87.40
46976;DHT22;32724;51.094;6.996;2023-03-02T13:29:54;10.80;85.80
46976;DHT22;32724;51.094;6.996;2023-03-02T13:34:56;10.70;85.10
46976;DHT22;32724;51.094;6.996;2023-03-02T13:39:55;10.60;84.30
46976;DHT22;32724;51.094;6.996;2023-03-02T13:42:28;10.60;86.00
46976;DHT22;32724;51.094;6.996;2023-03-02T13:44:53;10.70;84.90
46976;DHT22;32724;51.094;6.996;2023-03-02T13:47:23;10.80;84.40
46976;DHT22;32724;51.094;6.996;2023-03-02T13:49:48;10.80;83.00
46976;DHT22;32724;51.094;6.996;2023-03-02T13:54:42;10.80;82.60
46976;DHT22;32724;51.094;6.996;2023-03-02T13:57:19;10.80;83.90
46976;DHT22;32724;51.094;6.996;2023-03-02T13:59:46;10.90;82.70
46976;DHT22;32724;51.094;6.996;2023-03-02T14:02:33;10.90;83.50
46976;DHT22;32724;51.094;6.996;2023-03-02T14:05:20;10.90;82.50
46976;DHT22;32724;51.094;6.996;2023-03-02T14:07:46;10.80;81.40
46976;DHT22;32724;51.094;6.996;2023-03-02T14:10:12;10.80;82.70
46976;DHT22;32724;51.094;6.996;2023-03-02T14:12:38;10.70;82.30
46976;DHT22;32724;51.094;6.996;2023-03-02T14:15:05;10.60;83.30
46976;DHT22;32724;51.094;6.996;2023-03-02T14:17:31;10.50;85.40
46976;DHT22;32724;51.094;6.996;2023-03-02T14:19:56;10.50;84.00
46976;DHT22;32724;51.094;6.996;2023-03-02T14:22:23;10.70;82.30
46976;DHT22;32724;51.094;6.996;2023-03-02T14:24:49;10.80;83.00
46976;DHT22;32724;51.094;6.996;2023-03-02T14:27:15;10.90;82.00
46976;DHT22;32724;51.094;6.996;2023-03-02T14:29:44;10.90;82.10
46976;DHT22;32724;51.094;6.996;2023-03-02T14:32:12;11.00;81.70
46976;DHT22;32724;51.094;6.996;2023-03-02T14:34:38;11.00;80.30
46976;DHT22;32724;51.094;6.996;2023-03-02T14:37:06;11.00;79.40
46976;DHT22;32724;51.094;6.996;2023-03-02T14:39:36;11.00;80.20
46976;DHT22;32724;51.094;6.996;2023-03-02T14:42:07;11.00;79.50
46976;DHT22;32724;51.094;6.996;2023-03-02T14:44:34;11.00;80.00
46976;DHT22;32724;51.094;6.996;2023-03-02T14:46:59;11.00;78.90
46976;DHT22;32724;51.094;6.996;2023-03-02T14:49:25;11.10;80.70
46976;DHT22;32724;51.094;6.996;2023-03-02T14:52:00;11.10;81.10
46976;DHT22;32724;51.094;6.996;2023-03-02T14:54:34;11.10;81.10
46976;DHT22;32724;51.094;6.996;2023-03-02T14:57:01;11.00;78.50
46976;DHT22;32724;51.094;6.996;2023-03-02T14:59:26;11.00;78.60
46976;DHT22;32724;51.094;6.996;2023-03-02T15:01:52;10.90;78.10
46976;DHT22;32724;51.094;6.996;2023-03-02T15:04:17;10.90;78.20
46976;DHT22;32724;51.094;6.996;2023-03-02T15:06:42;10.80;78.30
46976;DHT22;32724;51.094;6.996;2023-03-02T15:09:09;10.80;79.10
46976;DHT22;32724;51.094;6.996;2023-03-02T15:11:34;10.80;78.60
46976;DHT22;32724;51.094;6.996;2023-03-02T15:14:00;10.80;80.00
46976;DHT22;32724;51.094;6.996;2023-03-02T15:16:25;10.80;78.20
46976;DHT22;32724;51.094;6.996;2023-03-02T15:18:51;10.80;77.90
46976;DHT22;32724;51.094;6.996;2023-03-02T15:21:18;10.70;78.00
46976;DHT22;32724;51.094;6.996;2023-03-02T15:23:44;10.60;78.50
46976;DHT22;32724;51.094;6.996;2023-03-02T15:26:10;10.60;78.70
46976;DHT22;32724;51.094;6.996;2023-03-02T15:28:35;10.60;79.20
46976;DHT22;32724;51.094;6.996;2023-03-02T15:31:05;10.60;78.50
46976;DHT22;32724;51.094;6.996;2023-03-02T15:33:30;10.60;78.70
46976;DHT22;32724;51.094;6.996;2023-03-02T15:35:56;10.60;79.50
46976;DHT22;32724;51.094;6.996;2023-03-02T15:38:21;10.60;79.20
46976;DHT22;32724;51.094;6.996;2023-03-02T15:40:47;10.50;79.90
46976;DHT22;32724;51.094;6.996;2023-03-02T15:43:12;10.50;79.10
46976;DHT22;32724;51.094;6.996;2023-03-02T15:45:42;10.50;80.10
46976;DHT22;32724;51.094;6.996;2023-03-02T15:48:08;10.50;79.80
46976;DHT22;32724;51.094;6.996;2023-03-02T15:50:33;10.40;79.70
46976;DHT22;32724;51.094;6.996;2023-03-02T15:52:59;10.40;80.00
46976;DHT22;32724;51.094;6.996;2023-03-02T15:55:24;10.40;80.00
46976;DHT22;32724;51.094;6.996;2023-03-02T15:57:51;10.30;80.30
46976;DHT22;32724;51.094;6.996;2023-03-02T16:00:16;10.20;80.40
46976;DHT22;32724;51.094;6.996;2023-03-02T16:02:42;10.20;80.60
46976;DHT22;32724;51.094;6.996;2023-03-02T16:05:08;10.10;81.10
46976;DHT22;32724;51.094;6.996;2023-03-02T16:07:33;10.10;81.50
46976;DHT22;32724;51.094;6.996;2023-03-02T16:10:01;9.90;81.90
46976;DHT22;32724;51.094;6.996;2023-03-02T16:12:27;9.80;83.00
46976;DHT22;32724;51.094;6.996;2023-03-02T16:14:52;9.70;82.80
46976;DHT22;32724;51.094;6.996;2023-03-02T16:17:17;9.60;84.90
46976;DHT22;32724;51.094;6.996;2023-03-02T16:19:43;9.50;84.90
46976;DHT22;32724;51.094;6.996;2023-03-02T16:22:09;9.60;83.60
46976;DHT22;32724;51.094;6.996;2023-03-02T16:24:34;9.50;84.90
46976;DHT22;32724;51.094;6.996;2023-03-02T16:27:00;9.20;86.30
46976;DHT22;32724;51.094;6.996;2023-03-02T16:29:25;9.20;85.50
46976;DHT22;32724;51.094;6.996;2023-03-02T16:31:51;9.20;85.40
46976;DHT22;32724;51.094;6.996;2023-03-02T16:34:16;9.00;86.70
46976;DHT22;32724;51.094;6.996;2023-03-02T16:36:42;8.90;86.30
46976;DHT22;32724;51.094;6.996;2023-03-02T16:39:08;9.00;85.60
46976;DHT22;32724;51.094;6.996;2023-03-02T16:41:34;9.10;85.90
46976;DHT22;32724;51.094;6.996;2023-03-02T16:43:59;9.20;85.80
46976;DHT22;32724;51.094;6.996;2023-03-02T16:46:26;9.20;85.40
46976;DHT22;32724;51.094;6.996;2023-03-02T16:48:52;9.20;85.60